Terminal Aerodrome Forecast
Issued by NWS Twin Cities, MN

Home | Current Version | Previous Version | Text Only | Print | Product List | Glossary On
Versions: 1 2 3 4 5 6 7 8 9 10 11 12 13 14 15 16 17 18 19 20 21 22 23
753
FTUS43 KMPX 300720 AAA
TAFMSP
TAF AMD
KMSP 300720Z 3007/3112 08013KT P6SM -RA BKN015 OVC024
     FM301600 06013G20KT P6SM OVC025
     FM310000 03008KT P6SM OVC040=

USA.gov is the U.S. government's official web portal to all federal, state and local government web resources and services.